createdAt,value
2022-11-08T00:02:23.447Z,75.71
2022-11-08T00:04:50.171Z,75.59
2022-11-08T00:07:35.900Z,75.72
2022-11-08T00:10:21.183Z,75.56
2022-11-08T00:13:06.463Z,75.36
2022-11-08T00:15:38.582Z,75.34
2022-11-08T00:18:07.106Z,75.40
2022-11-08T00:20:34.074Z,75.37
2022-11-08T00:23:00.997Z,75.32
2022-11-08T00:25:27.654Z,74.89
2022-11-08T00:27:54.310Z,74.93
2022-11-08T00:30:20.959Z,74.56
2022-11-08T00:32:47.634Z,74.94
2022-11-08T00:35:14.457Z,74.83
2022-11-08T00:37:41.268Z,74.86
2022-11-08T00:40:08.398Z,74.86
2022-11-08T00:42:35.138Z,75.15
2022-11-08T00:45:02.160Z,75.25
2022-11-08T00:47:28.829Z,74.83
2022-11-08T00:49:55.497Z,75.07
2022-11-08T00:52:22.188Z,75.10
2022-11-08T00:54:48.824Z,75.15
2022-11-08T00:57:15.468Z,74.80
2022-11-08T00:59:42.092Z,74.62
2022-11-08T01:02:08.922Z,74.49
2022-11-08T01:04:36.196Z,74.46
2022-11-08T01:07:02.985Z,74.29
2022-11-08T01:09:31.114Z,74.77
2022-11-08T01:11:57.980Z,74.25
2022-11-08T01:14:24.691Z,74.07
2022-11-08T01:16:52.257Z,74.04
2022-11-08T01:19:18.980Z,73.90
2022-11-08T01:21:45.703Z,73.76
2022-11-08T01:24:12.376Z,73.79
2022-11-08T01:26:39.110Z,73.60
2022-11-08T01:29:05.771Z,73.23
2022-11-08T01:31:32.676Z,73.14
2022-11-08T01:33:59.977Z,73.39
2022-11-08T01:36:28.095Z,72.92
2022-11-08T01:38:56.156Z,72.68
2022-11-08T01:41:25.005Z,73.09
2022-11-08T01:43:52.763Z,72.72
2022-11-08T01:46:19.399Z,72.57
2022-11-08T01:48:52.374Z,72.89
2022-11-08T01:51:23.180Z,72.98
2022-11-08T01:53:50.933Z,72.80
2022-11-08T01:56:18.989Z,72.45
2022-11-08T01:58:48.121Z,72.88
2022-11-08T02:01:14.787Z,72.85
2022-11-08T02:03:41.730Z,72.81
2022-11-08T02:06:09.638Z,72.67
2022-11-08T02:08:41.525Z,72.68
2022-11-08T02:11:11.245Z,72.45
2022-11-08T02:13:38.974Z,72.42
2022-11-08T02:16:14.579Z,72.26
2022-11-08T02:18:43.900Z,72.41
2022-11-08T02:21:20.676Z,72.62
2022-11-08T02:23:52.213Z,72.76
2022-11-08T02:26:24.390Z,72.46
2022-11-08T02:28:51.452Z,72.30
2022-11-08T02:31:20.026Z,72.21
2022-11-08T02:33:48.179Z,72.31
2022-11-08T02:36:20.110Z,72.79
2022-11-08T02:38:50.307Z,72.87
2022-11-08T02:41:16.975Z,72.71
2022-11-08T02:43:43.613Z,72.45
2022-11-08T02:46:10.279Z,72.09
2022-11-08T02:48:36.956Z,72.14
2022-11-08T02:51:03.703Z,72.17
2022-11-08T02:53:30.400Z,71.87
2022-11-08T02:55:57.091Z,71.68
2022-11-08T02:58:23.801Z,72.13
2022-11-08T03:00:50.458Z,71.93
2022-11-08T03:03:17.036Z,71.79
2022-11-08T03:05:43.759Z,71.32
2022-11-08T03:08:10.491Z,71.82
2022-11-08T03:10:37.100Z,71.66
2022-11-08T03:13:05.408Z,71.31
2022-11-08T03:15:33.343Z,71.22
2022-11-08T03:18:00.187Z,71.10
2022-11-08T03:20:32.129Z,71.34
2022-11-08T03:23:01.259Z,71.40
2022-11-08T03:25:28.259Z,71.25
2022-11-08T03:27:55.239Z,71.30
2022-11-08T03:30:22.313Z,71.30
2022-11-08T03:32:49.936Z,71.16
2022-11-08T03:35:17.137Z,71.31
2022-11-08T03:37:54.431Z,71.19
2022-11-08T03:40:21.930Z,71.21
2022-11-08T03:42:49.004Z,71.64
2022-11-08T03:45:16.324Z,71.54
2022-11-08T03:47:44.835Z,71.56
2022-11-08T03:50:12.630Z,71.76
2022-11-08T03:52:48.381Z,71.25
2022-11-08T03:55:16.324Z,71.20
2022-11-08T03:57:44.826Z,71.35
2022-11-08T04:00:13.233Z,70.96
2022-11-08T04:02:40.568Z,70.87
2022-11-08T04:05:09.709Z,71.00
2022-11-08T04:07:36.791Z,70.84
2022-11-08T04:10:08.204Z,70.80
2022-11-08T04:12:57.202Z,70.77
2022-11-08T04:15:24.753Z,70.36
2022-11-08T04:18:11.335Z,70.06
2022-11-08T04:21:01.382Z,70.22
2022-11-08T04:23:28.653Z,69.73
2022-11-08T04:26:01.226Z,69.69
2022-11-08T04:28:30.558Z,69.67
2022-11-08T04:30:59.247Z,70.17
2022-11-08T04:33:26.622Z,69.64
2022-11-08T04:35:53.902Z,69.54
2022-11-08T04:38:21.804Z,69.99
2022-11-08T04:40:48.681Z,69.57
2022-11-08T04:43:15.335Z,69.41
2022-11-08T04:45:41.976Z,69.95
2022-11-08T04:48:08.729Z,70.01
2022-11-08T04:50:36.411Z,69.59
2022-11-08T04:53:03.231Z,69.73
2022-11-08T04:55:29.892Z,69.77
2022-11-08T04:57:59.855Z,69.60
2022-11-08T05:00:26.978Z,69.89
2022-11-08T05:02:54.181Z,69.37
2022-11-08T05:05:21.991Z,69.04
2022-11-08T05:07:48.829Z,68.56
2022-11-08T05:10:15.658Z,68.43
2022-11-08T05:12:42.452Z,68.64
2022-11-08T05:15:09.804Z,68.61
2022-11-08T05:17:36.538Z,68.39
2022-11-08T05:20:23.482Z,68.56
2022-11-08T05:23:08.772Z,68.53
2022-11-08T05:25:39.119Z,68.25
2022-11-08T05:28:05.794Z,68.50
2022-11-08T05:30:32.704Z,68.17
2022-11-08T05:32:59.377Z,68.42
2022-11-08T05:35:26.037Z,68.16
2022-11-08T05:37:52.658Z,67.87
2022-11-08T05:40:19.310Z,67.96
2022-11-08T05:42:45.975Z,67.75
2022-11-08T05:45:12.574Z,67.34
2022-11-08T05:47:39.247Z,67.54
2022-11-08T05:50:06.371Z,67.46
2022-11-08T05:52:33.245Z,66.91
2022-11-08T05:55:00.165Z,66.55
2022-11-08T05:57:26.836Z,66.44
2022-11-08T05:59:53.504Z,66.03
2022-11-08T06:02:20.310Z,65.95
2022-11-08T06:04:47.111Z,66.39
2022-11-08T06:07:13.733Z,66.11
2022-11-08T06:09:40.475Z,66.04
2022-11-08T06:12:07.937Z,66.15
2022-11-08T06:14:34.864Z,65.99
2022-11-08T06:17:01.628Z,65.85
2022-11-08T06:19:28.296Z,65.40
2022-11-08T06:21:55.062Z,65.25
2022-11-08T06:24:21.726Z,65.28
2022-11-08T06:26:48.498Z,65.44
2022-11-08T06:29:15.145Z,65.09
2022-11-08T06:31:43.214Z,65.23
2022-11-08T06:34:10.765Z,64.98
2022-11-08T06:36:37.550Z,64.68
2022-11-08T06:39:04.477Z,64.81
2022-11-08T06:41:32.200Z,64.58
2022-11-08T06:43:59.471Z,64.64
2022-11-08T06:46:26.349Z,64.33
2022-11-08T06:48:53.027Z,64.38
2022-11-08T06:51:19.910Z,64.33
2022-11-08T06:53:46.629Z,64.31
2022-11-08T06:56:13.403Z,64.66
2022-11-08T06:58:40.105Z,64.14
2022-11-08T07:01:08.697Z,63.75
2022-11-08T07:03:35.499Z,63.82
2022-11-08T07:06:06.853Z,63.12
2022-11-08T07:08:34.970Z,63.47
2022-11-08T07:11:02.427Z,63.42
2022-11-08T07:13:29.284Z,63.23
2022-11-08T07:16:00.151Z,63.21
2022-11-08T07:18:28.221Z,62.13
2022-11-08T07:21:00.093Z,61.37
2022-11-08T07:23:27.853Z,60.99
2022-11-08T07:25:54.970Z,61.61
2022-11-08T07:28:21.768Z,60.61
2022-11-08T07:30:49.002Z,60.76
2022-11-08T07:33:17.489Z,60.72
2022-11-08T07:35:47.133Z,60.14
2022-11-08T07:38:14.080Z,60.01
2022-11-08T07:40:41.086Z,59.91
2022-11-08T07:43:12.732Z,58.68
2022-11-08T07:45:41.512Z,58.48
2022-11-08T07:48:12.442Z,58.31
2022-11-08T07:50:41.401Z,58.46
2022-11-08T07:53:08.944Z,58.19
2022-11-08T07:55:37.483Z,58.43
2022-11-08T07:58:04.984Z,58.12
2022-11-08T08:00:33.362Z,57.64
2022-11-08T08:03:01.334Z,57.26
2022-11-08T08:05:30.824Z,57.50
2022-11-08T08:07:58.711Z,57.43
2022-11-08T08:10:26.515Z,56.81
2022-11-08T08:12:53.674Z,56.39
2022-11-08T08:15:20.491Z,56.00
2022-11-08T08:17:47.272Z,54.47
2022-11-08T08:20:14.205Z,52.78
2022-11-08T08:22:45.532Z,51.17
2022-11-08T08:25:13.214Z,50.40
2022-11-08T08:27:40.402Z,49.52
2022-11-08T08:30:07.645Z,49.31
2022-11-08T08:32:34.531Z,50.56
2022-11-08T08:35:01.208Z,50.37
2022-11-08T08:37:28.357Z,51.21
2022-11-08T08:39:54.985Z,52.27
2022-11-08T08:42:21.673Z,52.59
2022-11-08T08:44:48.400Z,52.31
2022-11-08T08:47:15.007Z,52.90
2022-11-08T08:49:41.731Z,53.15
2022-11-08T08:52:08.452Z,52.91
2022-11-08T08:54:35.201Z,53.07
2022-11-08T08:57:01.967Z,52.12
2022-11-08T09:02:17.257Z,51.42
2022-11-08T09:04:44.094Z,50.72
2022-11-08T09:07:10.907Z,49.19
2022-11-08T09:09:37.723Z,47.86
2022-11-08T09:12:06.317Z,47.24
2022-11-08T09:14:34.728Z,45.25
2022-11-08T09:17:01.536Z,43.33
2022-11-08T09:19:28.204Z,40.80
2022-11-08T09:21:54.928Z,39.04
2022-11-08T09:24:21.749Z,35.95
2022-11-08T09:26:55.138Z,33.49
2022-11-08T09:29:21.845Z,31.44
2022-11-08T09:31:49.762Z,30.85
2022-11-08T09:34:19.219Z,30.31
2022-11-08T09:36:48.795Z,29.36
2022-11-08T09:39:16.436Z,28.18
2022-11-08T09:41:59.794Z,26.85
2022-11-08T09:45:00.557Z,26.10
2022-11-08T09:47:34.698Z,26.01
2022-11-08T09:50:15.935Z,25.58
2022-11-08T09:52:46.001Z,25.44
2022-11-08T09:55:26.540Z,26.25
2022-11-08T09:58:11.892Z,26.83
2022-11-08T10:00:40.379Z,27.80
2022-11-08T10:03:13.246Z,28.86
2022-11-08T10:05:43.716Z,30.07
2022-11-08T10:08:28.575Z,30.72
2022-11-08T10:11:13.370Z,30.20
2022-11-08T10:13:45.877Z,29.93
2022-11-08T10:16:29.247Z,29.59
2022-11-08T10:19:00.252Z,28.74
2022-11-08T10:21:52.009Z,27.55
2022-11-08T10:24:33.669Z,27.35
2022-11-08T10:27:00.367Z,28.92
2022-11-08T10:29:43.685Z,31.10
2022-11-08T10:32:24.833Z,31.37
2022-11-08T10:35:18.674Z,32.77
2022-11-08T10:37:49.210Z,33.23
2022-11-08T10:40:22.385Z,32.97
2022-11-08T10:42:59.289Z,31.27
2022-11-08T10:45:25.959Z,28.88
2022-11-08T10:47:53.797Z,26.50
2022-11-08T10:50:32.062Z,25.38
2022-11-08T10:53:02.284Z,25.11
2022-11-08T10:55:38.360Z,24.69
2022-11-08T10:58:27.862Z,24.63
2022-11-08T11:01:22.697Z,24.35
2022-11-08T11:03:52.455Z,23.78
2022-11-08T11:06:22.127Z,23.44
2022-11-08T11:09:00.576Z,23.69
2022-11-08T11:11:38.046Z,25.79
2022-11-08T11:14:09.993Z,25.65
2022-11-08T11:16:56.188Z,25.34
2022-11-08T11:19:24.955Z,25.63
2022-11-08T11:21:58.115Z,24.73
2022-11-08T11:24:25.438Z,24.72
2022-11-08T11:27:00.654Z,24.24
2022-11-08T11:29:30.276Z,23.71
2022-11-08T11:31:58.612Z,24.22
2022-11-08T11:34:35.527Z,24.02
2022-11-08T11:37:11.011Z,23.57
2022-11-08T11:39:49.512Z,22.76
2022-11-08T11:42:52.287Z,22.83
2022-11-08T11:45:24.408Z,22.79
2022-11-08T11:47:54.302Z,23.53
2022-11-08T11:50:34.646Z,23.61
2022-11-08T11:53:04.974Z,23.50
2022-11-08T11:55:43.035Z,23.71
2022-11-08T11:58:09.687Z,24.02
2022-11-08T12:00:42.764Z,24.44
2022-11-08T12:03:18.971Z,25.43
2022-11-08T12:05:48.801Z,26.14
2022-11-08T12:08:47.540Z,27.75
2022-11-08T12:11:23.382Z,27.98
2022-11-08T12:14:11.647Z,29.31
2022-11-08T12:16:44.082Z,30.64
2022-11-08T12:19:46.321Z,31.93
2022-11-08T12:22:37.586Z,33.02
2022-11-08T12:25:51.022Z,34.45
2022-11-08T12:28:50.832Z,34.53
2022-11-08T12:31:24.128Z,35.71
2022-11-08T12:34:35.429Z,35.67
2022-11-08T12:37:42.951Z,36.88
2022-11-08T12:40:28.974Z,37.38
2022-11-08T12:43:21.610Z,37.20
2022-11-08T12:45:57.354Z,37.75
2022-11-08T12:48:56.202Z,38.04
2022-11-08T12:51:44.471Z,38.60
2022-11-08T12:54:17.116Z,38.95
2022-11-08T12:56:48.190Z,38.72
2022-11-08T12:59:23.894Z,39.11
2022-11-08T13:01:52.486Z,39.45
2022-11-08T13:04:43.424Z,39.51
2022-11-08T13:07:51.901Z,40.29
2022-11-08T13:10:18.471Z,40.31
2022-11-08T13:12:48.194Z,40.72
2022-11-08T13:15:28.426Z,40.88
2022-11-08T13:18:07.432Z,41.12
2022-11-08T13:20:47.566Z,40.41
2022-11-08T13:23:31.455Z,40.28
2022-11-08T13:26:24.225Z,40.11
2022-11-08T13:28:52.566Z,40.36
2022-11-08T13:31:21.976Z,41.24
2022-11-08T13:34:07.277Z,41.44
2022-11-08T13:36:58.816Z,40.87
2022-11-08T13:40:00.664Z,40.95
2022-11-08T13:42:28.874Z,40.38
2022-11-08T13:44:55.508Z,40.28
2022-11-08T13:47:34.519Z,40.88
2022-11-08T13:50:29.069Z,41.33
2022-11-08T13:53:07.591Z,42.23
2022-11-08T13:55:44.557Z,42.13
2022-11-08T13:58:38.867Z,43.13
2022-11-08T14:01:07.984Z,43.03
2022-11-08T14:03:34.602Z,43.42
2022-11-08T14:06:13.553Z,43.52
2022-11-08T14:08:54.446Z,43.69
2022-11-08T14:11:43.148Z,43.53
2022-11-08T14:14:20.767Z,43.45
2022-11-08T14:16:58.815Z,43.44
2022-11-08T14:19:27.314Z,44.05
2022-11-08T14:21:58.173Z,43.99
2022-11-08T14:24:28.845Z,44.03
2022-11-08T14:26:55.765Z,43.96
2022-11-08T14:29:24.353Z,44.66
2022-11-08T14:32:09.237Z,44.36
2022-11-08T14:34:37.707Z,43.91
2022-11-08T14:37:11.168Z,44.55
2022-11-08T14:39:38.091Z,44.86
2022-11-08T14:42:18.727Z,44.60
2022-11-08T14:44:46.277Z,44.65
2022-11-08T14:47:28.656Z,45.16
2022-11-08T14:49:55.484Z,45.52
2022-11-08T14:52:29.259Z,45.91
2022-11-08T14:55:04.063Z,45.76
2022-11-08T14:57:36.855Z,45.58
2022-11-08T15:00:15.161Z,45.56
2022-11-08T15:02:44.914Z,45.85
2022-11-08T15:05:53.783Z,45.94
2022-11-08T15:08:25.981Z,46.27
2022-11-08T15:11:07.702Z,46.13
2022-11-08T15:13:45.786Z,46.32
2022-11-08T15:16:12.932Z,46.67
2022-11-08T15:18:43.803Z,46.84
2022-11-08T15:21:16.426Z,47.02
2022-11-08T15:23:45.808Z,47.21
2022-11-08T15:26:31.636Z,47.18
2022-11-08T15:29:02.274Z,47.31
2022-11-08T15:31:32.818Z,47.60
2022-11-08T15:33:59.696Z,47.47
2022-11-08T15:36:34.213Z,48.07
2022-11-08T15:39:02.270Z,47.98
2022-11-08T15:41:31.037Z,48.20
2022-11-08T15:44:20.793Z,48.61
2022-11-08T15:46:47.764Z,49.06
2022-11-08T15:49:16.254Z,48.91
2022-11-08T15:51:43.015Z,48.89
2022-11-08T15:54:09.753Z,49.32
2022-11-08T15:56:37.000Z,49.65
2022-11-08T15:59:04.495Z,49.99
2022-11-08T16:01:31.246Z,49.98
2022-11-08T16:03:57.905Z,50.20
2022-11-08T16:06:24.605Z,50.27
2022-11-08T16:08:51.243Z,50.52
2022-11-08T16:11:23.163Z,50.51
2022-11-08T16:13:51.290Z,51.00
2022-11-08T16:16:18.566Z,51.00
2022-11-08T16:18:45.452Z,51.14
2022-11-08T16:21:13.677Z,51.56
2022-11-08T16:23:41.391Z,52.00
2022-11-08T16:26:15.017Z,52.28
2022-11-08T16:28:41.816Z,52.38
2022-11-08T16:31:14.052Z,52.68
2022-11-08T16:33:42.388Z,52.92
2022-11-08T16:36:21.097Z,53.16
2022-11-08T16:38:58.930Z,53.46
2022-11-08T16:41:26.262Z,53.76
2022-11-08T16:43:53.297Z,53.84
2022-11-08T16:46:21.505Z,54.04
2022-11-08T16:48:53.144Z,54.27
2022-11-08T16:51:21.546Z,54.42
2022-11-08T16:53:49.122Z,54.60
2022-11-08T16:56:16.212Z,54.60
2022-11-08T16:58:43.140Z,54.64
2022-11-08T17:01:15.325Z,54.78
2022-11-08T17:03:42.754Z,55.14
2022-11-08T17:06:17.851Z,54.64
2022-11-08T17:08:45.777Z,55.05
2022-11-08T17:11:20.004Z,54.99
2022-11-08T17:13:47.619Z,55.00
2022-11-08T17:16:15.865Z,54.77
2022-11-08T17:18:42.833Z,54.76
2022-11-08T17:21:38.252Z,54.82
2022-11-08T17:23:59.365Z,54.75
2022-11-08T17:26:26.684Z,54.98
2022-11-08T17:28:56.484Z,54.87
2022-11-08T17:31:23.188Z,55.14
2022-11-08T17:33:49.996Z,54.82
2022-11-08T17:36:16.749Z,54.83
2022-11-08T17:38:43.577Z,55.19
2022-11-08T17:41:13.003Z,55.22
2022-11-08T17:43:40.571Z,55.03
2022-11-08T17:46:07.754Z,55.55
2022-11-08T17:48:35.015Z,55.61
2022-11-08T17:51:01.781Z,55.97
2022-11-08T17:53:28.892Z,56.03
2022-11-08T17:55:58.515Z,56.27
2022-11-08T17:58:25.969Z,56.14
2022-11-08T18:00:54.480Z,56.35
2022-11-08T18:03:21.839Z,56.59
2022-11-08T18:05:57.594Z,56.43
2022-11-08T18:08:27.176Z,56.33
2022-11-08T18:10:54.399Z,56.09
2022-11-08T18:13:22.363Z,56.31
2022-11-08T18:15:52.256Z,56.25
2022-11-08T18:18:19.277Z,56.60
2022-11-08T18:20:53.061Z,56.76
2022-11-08T18:23:20.070Z,56.69
2022-11-08T18:25:49.082Z,56.90
2022-11-08T18:28:16.761Z,57.04
2022-11-08T18:30:47.806Z,56.99
2022-11-08T18:33:19.335Z,57.00
2022-11-08T18:35:46.778Z,57.03
2022-11-08T18:38:13.892Z,57.12
2022-11-08T18:40:44.171Z,57.12
2022-11-08T18:43:10.840Z,57.03
2022-11-08T18:45:37.853Z,56.91
2022-11-08T18:48:04.682Z,57.30
2022-11-08T18:50:32.398Z,57.62
2022-11-08T18:53:03.349Z,57.58
2022-11-08T18:55:31.701Z,58.05
2022-11-08T18:58:00.732Z,58.00
2022-11-08T19:00:27.861Z,58.37
2022-11-08T19:02:54.927Z,58.64
2022-11-08T19:05:21.681Z,58.77
2022-11-08T19:07:48.401Z,58.73
2022-11-08T19:10:15.153Z,59.08
2022-11-08T19:12:42.013Z,59.60
2022-11-08T19:15:09.121Z,60.08
2022-11-08T19:17:36.359Z,59.95
2022-11-08T19:20:04.612Z,60.33
2022-11-08T19:22:31.283Z,60.44
2022-11-08T19:24:57.911Z,61.11
2022-11-08T19:27:24.577Z,61.25
2022-11-08T19:29:51.385Z,61.70
2022-11-08T19:32:18.085Z,62.25
2022-11-08T19:34:48.173Z,62.83
2022-11-08T19:37:14.898Z,63.03
2022-11-08T19:39:41.730Z,63.09
2022-11-08T19:42:08.312Z,63.22
2022-11-08T19:44:34.966Z,63.78
2022-11-08T19:47:01.890Z,63.74
2022-11-08T19:49:28.757Z,64.13
2022-11-08T19:51:55.447Z,64.29
2022-11-08T19:54:22.166Z,65.18
2022-11-08T19:57:05.721Z,66.07
2022-11-08T19:59:33.267Z,65.97
2022-11-08T20:02:00.320Z,66.90
2022-11-08T20:04:28.079Z,67.49
2022-11-08T20:06:55.065Z,67.37
2022-11-08T20:09:25.964Z,67.36
2022-11-08T20:11:55.757Z,68.12
2022-11-08T20:14:22.419Z,68.17
2022-11-08T20:16:53.243Z,69.00
2022-11-08T20:19:20.593Z,69.37
2022-11-08T20:21:47.423Z,69.76
2022-11-08T20:24:15.224Z,70.06
2022-11-08T20:26:42.496Z,70.00
2022-11-08T20:29:09.650Z,70.31
2022-11-08T20:31:37.313Z,70.35
2022-11-08T20:34:07.250Z,70.25
2022-11-08T20:36:37.330Z,70.68
2022-11-08T20:39:07.790Z,70.76
2022-11-08T20:41:37.129Z,71.33
2022-11-08T20:44:05.229Z,71.24
2022-11-08T20:46:33.006Z,71.22
2022-11-08T20:49:01.023Z,71.28
2022-11-08T20:51:30.532Z,71.59
2022-11-08T20:53:58.877Z,72.19
2022-11-08T20:56:26.209Z,71.76
2022-11-08T20:58:53.673Z,72.53
2022-11-08T21:01:22.884Z,72.37
2022-11-08T21:03:51.062Z,72.28
2022-11-08T21:06:20.199Z,72.91
2022-11-08T21:09:12.130Z,72.77
2022-11-08T21:11:35.342Z,73.32
2022-11-08T21:14:03.056Z,73.11
2022-11-08T21:16:34.994Z,73.00
2022-11-08T21:19:05.686Z,73.18
2022-11-08T21:21:33.004Z,73.10
2022-11-08T21:23:59.742Z,73.15
2022-11-08T21:26:26.564Z,73.25
2022-11-08T21:28:53.771Z,73.12
2022-11-08T21:31:20.469Z,73.00
2022-11-08T21:33:47.473Z,73.33
2022-11-08T21:36:14.216Z,73.24
2022-11-08T21:38:40.892Z,73.24
2022-11-08T21:41:09.958Z,72.91
2022-11-08T21:43:44.714Z,72.53
2022-11-08T21:46:20.849Z,72.35
2022-11-08T21:48:52.515Z,72.28
2022-11-08T21:51:19.227Z,72.02
2022-11-08T21:53:54.039Z,72.00
2022-11-08T21:56:23.145Z,71.96
2022-11-08T21:58:50.273Z,71.79
2022-11-08T22:01:17.732Z,72.03
2022-11-08T22:03:44.602Z,71.83
2022-11-08T22:06:11.511Z,71.72
2022-11-08T22:08:38.271Z,71.50
2022-11-08T22:11:05.297Z,71.45
2022-11-08T22:13:32.528Z,71.69
2022-11-08T22:15:59.132Z,71.40
2022-11-08T22:18:50.263Z,71.58
2022-11-08T22:21:30.951Z,71.70
2022-11-08T22:23:57.601Z,72.78
2022-11-08T22:26:24.254Z,73.81
2022-11-08T22:28:50.947Z,75.13
2022-11-08T22:31:17.582Z,75.93
2022-11-08T22:33:44.377Z,77.81
2022-11-08T22:36:11.888Z,78.37
2022-11-08T22:38:38.907Z,79.07
2022-11-08T22:41:06.359Z,79.06
2022-11-08T22:43:36.269Z,78.88
2022-11-08T22:46:03.491Z,78.82
2022-11-08T22:48:31.364Z,78.86
2022-11-08T22:50:58.361Z,78.68
2022-11-08T22:53:25.063Z,78.80
2022-11-08T22:55:51.809Z,79.05
2022-11-08T22:58:18.449Z,78.95
2022-11-08T23:00:45.099Z,79.24
2022-11-08T23:03:11.804Z,79.02
2022-11-08T23:05:38.540Z,79.43
2022-11-08T23:08:05.556Z,79.52
2022-11-08T23:10:32.228Z,79.23
2022-11-08T23:13:17.793Z,79.29
2022-11-08T23:16:03.168Z,79.13
2022-11-08T23:18:29.783Z,79.44
2022-11-08T23:21:15.254Z,79.48
2022-11-08T23:24:00.479Z,79.46
2022-11-08T23:26:46.794Z,79.32
2022-11-08T23:29:32.123Z,78.81
2022-11-08T23:36:30.760Z,78.60
2022-11-08T23:38:58.070Z,78.46
2022-11-08T23:41:43.376Z,78.24
2022-11-08T23:44:25.284Z,77.54
2022-11-08T23:46:58.358Z,77.59
2022-11-08T23:49:25.868Z,77.20
2022-11-08T23:51:52.735Z,77.62
2022-11-08T23:54:19.718Z,77.23
2022-11-08T23:56:47.005Z,77.20
2022-11-08T23:59:15.312Z,77.91
